BAW870 EGLL-LHBP
Flight info
| Callsign | BAW870 |
|---|---|
| Flight time | 2h 2m |
| Altitude | 37000 |
| Route | DET1J DET L6 DVR UL9 KONAN DCT KOK DCT DENOX DCT MATUG DCT GUBAX DCT BARSU DCT EKSOS DCT LULAR DCT RUDAP DCT BUDEX DCT MAREG DCT ANEXA ANEXA2T |
| Aircraft | A319/M-SDE2E3FGHIJ1RWXY/SB1 |
Departure
| Time | 2026-05-05 20:58 |
|---|---|
| Airport | London Heathrow Airport (EGLL) |
Arrival
| Time | 2026-05-05 23:00 |
|---|---|
| Airport | Budapest Liszt Ferenc International Airport (LHBP) |
| Time | Latitude | Longitude | Altitude | Speed | Heading |
|---|---|---|---|---|---|
| 2026-05-05 20:27 | 51.47331 | -0.46399 | 87 ft | 0 kts | 25° |
| 2026-05-05 20:44 | 51.47320 | -0.46407 | 91 ft | 4 kts | 25° |
| 2026-05-05 20:45 | 51.47275 | -0.46441 | 92 ft | 2 kts | 25° |
| 2026-05-05 20:45 | 51.47252 | -0.46452 | 90 ft | 4 kts | 345° |
| 2026-05-05 20:45 | 51.47235 | -0.46433 | 90 ft | 4 kts | 305° |
| 2026-05-05 20:46 | 51.47217 | -0.46401 | 90 ft | 4 kts | 323° |
| 2026-05-05 20:46 | 51.47194 | -0.46378 | 88 ft | 3 kts | 327° |
| 2026-05-05 20:46 | 51.47190 | -0.46373 | 89 ft | 0 kts | 326° |
| 2026-05-05 20:49 | 51.47195 | -0.46379 | 88 ft | 3 kts | 326° |
| 2026-05-05 20:49 | 51.47216 | -0.46401 | 90 ft | 4 kts | 326° |
| 2026-05-05 20:50 | 51.47236 | -0.46438 | 89 ft | 5 kts | 295° |
| 2026-05-05 20:50 | 51.47238 | -0.46500 | 87 ft | 7 kts | 270° |
| 2026-05-05 20:50 | 51.47239 | -0.46592 | 87 ft | 10 kts | 270° |
| 2026-05-05 20:50 | 51.47237 | -0.46706 | 87 ft | 10 kts | 269° |
| 2026-05-05 20:51 | 51.47237 | -0.46811 | 87 ft | 9 kts | 269° |
| 2026-05-05 20:51 | 51.47193 | -0.46867 | 87 ft | 9 kts | 182° |
| 2026-05-05 20:51 | 51.47122 | -0.46867 | 87 ft | 12 kts | 180° |
| 2026-05-05 20:51 | 51.47033 | -0.46867 | 87 ft | 14 kts | 179° |
| 2026-05-05 20:52 | 51.46936 | -0.46865 | 87 ft | 14 kts | 179° |
| 2026-05-05 20:52 | 51.46845 | -0.46863 | 90 ft | 13 kts | 180° |
| 2026-05-05 20:52 | 51.46761 | -0.46864 | 87 ft | 11 kts | 180° |
| 2026-05-05 20:52 | 51.46684 | -0.46867 | 87 ft | 10 kts | 191° |
| 2026-05-05 20:53 | 51.46656 | -0.46958 | 88 ft | 10 kts | 269° |
| 2026-05-05 20:53 | 51.46657 | -0.47067 | 88 ft | 10 kts | 270° |
| 2026-05-05 20:53 | 51.46656 | -0.47216 | 87 ft | 18 kts | 269° |
| 2026-05-05 20:53 | 51.46655 | -0.47437 | 87 ft | 21 kts | 270° |
| 2026-05-05 20:54 | 51.46654 | -0.47691 | 87 ft | 24 kts | 270° |
| 2026-05-05 20:54 | 51.46654 | -0.47963 | 87 ft | 25 kts | 269° |
| 2026-05-05 20:54 | 51.46652 | -0.48152 | 87 ft | 11 kts | 270° |
| 2026-05-05 20:54 | 51.46626 | -0.48223 | 87 ft | 8 kts | 180° |
| 2026-05-05 20:55 | 51.46594 | -0.48218 | 87 ft | 0 kts | 176° |
| 2026-05-05 20:56 | 51.46588 | -0.48217 | 87 ft | 3 kts | 176° |
| 2026-05-05 20:56 | 51.46549 | -0.48214 | 88 ft | 7 kts | 178° |
| 2026-05-05 20:57 | 51.46496 | -0.48211 | 88 ft | 8 kts | 167° |
| 2026-05-05 20:57 | 51.46479 | -0.48122 | 87 ft | 11 kts | 90° |
| 2026-05-05 20:57 | 51.46480 | -0.47793 | 87 ft | 57 kts | 89° |
| 2026-05-05 20:57 | 51.46485 | -0.46845 | 91 ft | 112 kts | 89° |
| 2026-05-05 20:58 | 51.46489 | -0.45308 | 110 ft | 160 kts | 92° |
| 2026-05-05 20:58 | 51.46497 | -0.43598 | 824 ft | 149 kts | 87° |
| 2026-05-05 20:58 | 51.46465 | -0.41911 | 1404 ft | 158 kts | 98° |
| 2026-05-05 20:58 | 51.45933 | -0.40371 | 1677 ft | 183 kts | 130° |
| 2026-05-05 20:59 | 51.45007 | -0.38758 | 2047 ft | 206 kts | 127° |
| 2026-05-05 20:59 | 51.44105 | -0.36819 | 2567 ft | 225 kts | 122° |
| 2026-05-05 20:59 | 51.43382 | -0.34496 | 3185 ft | 244 kts | 105° |
| 2026-05-05 20:59 | 51.42978 | -0.31782 | 3941 ft | 256 kts | 99° |
| 2026-05-05 21:00 | 51.42645 | -0.28944 | 4896 ft | 262 kts | 98° |
| 2026-05-05 21:00 | 51.42332 | -0.26039 | 5834 ft | 267 kts | 97° |
| 2026-05-05 21:00 | 51.42010 | -0.23091 | 6756 ft | 273 kts | 98° |
| 2026-05-05 21:00 | 51.41639 | -0.20065 | 7636 ft | 279 kts | 99° |
| 2026-05-05 21:01 | 51.41238 | -0.17002 | 8527 ft | 284 kts | 100° |
| 2026-05-05 21:01 | 51.40814 | -0.13885 | 9394 ft | 289 kts | 100° |
| 2026-05-05 21:01 | 51.40375 | -0.10703 | 10189 ft | 298 kts | 101° |
| 2026-05-05 21:01 | 51.39911 | -0.07351 | 10479 ft | 321 kts | 101° |
| 2026-05-05 21:02 | 51.39408 | -0.03738 | 10854 ft | 339 kts | 101° |
| 2026-05-05 21:02 | 51.38891 | -0.00059 | 11515 ft | 345 kts | 101° |
| 2026-05-05 21:02 | 51.38363 | 0.03706 | 12264 ft | 349 kts | 101° |
| 2026-05-05 21:02 | 51.37831 | 0.07522 | 13010 ft | 353 kts | 101° |
| 2026-05-05 21:03 | 51.37294 | 0.11376 | 13751 ft | 356 kts | 102° |
| 2026-05-05 21:03 | 51.36749 | 0.15268 | 14399 ft | 360 kts | 102° |
| 2026-05-05 21:03 | 51.36195 | 0.19183 | 15069 ft | 363 kts | 102° |
| 2026-05-05 21:03 | 51.35635 | 0.23136 | 15749 ft | 365 kts | 102° |
| 2026-05-05 21:04 | 51.35070 | 0.27119 | 16429 ft | 368 kts | 102° |
| 2026-05-05 21:04 | 51.34503 | 0.31123 | 17090 ft | 371 kts | 102° |
| 2026-05-05 21:04 | 51.33928 | 0.35160 | 17882 ft | 373 kts | 102° |
| 2026-05-05 21:04 | 51.33347 | 0.39223 | 18537 ft | 376 kts | 102° |
| 2026-05-05 21:05 | 51.32761 | 0.43320 | 19103 ft | 380 kts | 102° |
| 2026-05-05 21:05 | 51.32166 | 0.47460 | 19666 ft | 384 kts | 102° |
| 2026-05-05 21:05 | 51.31563 | 0.51638 | 20226 ft | 387 kts | 102° |
| 2026-05-05 21:05 | 51.30957 | 0.55856 | 20775 ft | 391 kts | 102° |
| 2026-05-05 21:06 | 51.30341 | 0.60106 | 21313 ft | 395 kts | 103° |
| 2026-05-05 21:06 | 51.29654 | 0.64370 | 21852 ft | 398 kts | 104° |
| 2026-05-05 21:06 | 51.28890 | 0.68639 | 22365 ft | 402 kts | 105° |
| 2026-05-05 21:06 | 51.28077 | 0.72935 | 22877 ft | 405 kts | 106° |
| 2026-05-05 21:07 | 51.27246 | 0.77256 | 23377 ft | 408 kts | 106° |
| 2026-05-05 21:07 | 51.26412 | 0.81614 | 23829 ft | 411 kts | 106° |
| 2026-05-05 21:07 | 51.25583 | 0.85998 | 24257 ft | 413 kts | 106° |
| 2026-05-05 21:07 | 51.24773 | 0.90347 | 24648 ft | 415 kts | 106° |
| 2026-05-05 21:08 | 51.23953 | 0.94784 | 25082 ft | 417 kts | 106° |
| 2026-05-05 21:08 | 51.23132 | 0.99237 | 25521 ft | 419 kts | 107° |
| 2026-05-05 21:08 | 51.22303 | 1.03712 | 25954 ft | 421 kts | 107° |
| 2026-05-05 21:08 | 51.21469 | 1.08204 | 26374 ft | 424 kts | 107° |
| 2026-05-05 21:09 | 51.20628 | 1.12719 | 26798 ft | 426 kts | 107° |
| 2026-05-05 21:09 | 51.19779 | 1.17257 | 27204 ft | 428 kts | 107° |
| 2026-05-05 21:09 | 51.18928 | 1.21806 | 27626 ft | 431 kts | 107° |
| 2026-05-05 21:09 | 51.18062 | 1.26392 | 28037 ft | 433 kts | 108° |
| 2026-05-05 21:10 | 51.17190 | 1.30995 | 28448 ft | 435 kts | 108° |
| 2026-05-05 21:10 | 51.16408 | 1.35654 | 28846 ft | 437 kts | 102° |
| 2026-05-05 21:10 | 51.16040 | 1.40494 | 29245 ft | 440 kts | 95° |
| 2026-05-05 21:10 | 51.15820 | 1.45373 | 29649 ft | 442 kts | 95° |
| 2026-05-05 21:11 | 51.15593 | 1.50271 | 30002 ft | 444 kts | 96° |
| 2026-05-05 21:11 | 51.15358 | 1.55186 | 30330 ft | 446 kts | 96° |
| 2026-05-05 21:11 | 51.15115 | 1.60111 | 30666 ft | 447 kts | 96° |
| 2026-05-05 21:11 | 51.14866 | 1.65051 | 30998 ft | 448 kts | 97° |
| 2026-05-05 21:12 | 51.14614 | 1.69996 | 31344 ft | 448 kts | 97° |
| 2026-05-05 21:12 | 51.14363 | 1.74931 | 31821 ft | 445 kts | 97° |
| 2026-05-05 21:12 | 51.14114 | 1.79834 | 32283 ft | 443 kts | 97° |
| 2026-05-05 21:12 | 51.13866 | 1.84724 | 32743 ft | 442 kts | 97° |
| 2026-05-05 21:13 | 51.13619 | 1.89587 | 33198 ft | 440 kts | 97° |
| 2026-05-05 21:13 | 51.13370 | 1.94430 | 33646 ft | 438 kts | 97° |
| 2026-05-05 21:13 | 51.13122 | 1.99190 | 34071 ft | 437 kts | 97° |
| 2026-05-05 21:13 | 51.12869 | 2.04007 | 34419 ft | 437 kts | 97° |
| 2026-05-05 21:14 | 51.12615 | 2.08831 | 34719 ft | 437 kts | 97° |
| 2026-05-05 21:14 | 51.12359 | 2.13666 | 35010 ft | 438 kts | 97° |
| 2026-05-05 21:14 | 51.12100 | 2.18514 | 35283 ft | 440 kts | 97° |
| 2026-05-05 21:14 | 51.11838 | 2.23366 | 35545 ft | 441 kts | 97° |
| 2026-05-05 21:15 | 51.11572 | 2.28235 | 35804 ft | 442 kts | 97° |
| 2026-05-05 21:15 | 51.11303 | 2.33106 | 36049 ft | 443 kts | 97° |
| 2026-05-05 21:15 | 51.11029 | 2.38001 | 36292 ft | 444 kts | 97° |
| 2026-05-05 21:15 | 51.10751 | 2.42901 | 36520 ft | 446 kts | 97° |
| 2026-05-05 21:16 | 51.10470 | 2.47816 | 36746 ft | 447 kts | 97° |
| 2026-05-05 21:16 | 51.10188 | 2.52748 | 36894 ft | 448 kts | 97° |
| 2026-05-05 21:16 | 51.09615 | 2.62629 | 36928 ft | 448 kts | 98° |
| 2026-05-05 21:17 | 51.08401 | 2.72300 | 36922 ft | 446 kts | 105° |
| 2026-05-05 21:17 | 51.06958 | 2.81882 | 36913 ft | 445 kts | 105° |
| 2026-05-05 21:18 | 51.05514 | 2.91452 | 36920 ft | 445 kts | 105° |
| 2026-05-05 21:18 | 51.04046 | 3.01008 | 36913 ft | 445 kts | 106° |
| 2026-05-05 21:19 | 51.02572 | 3.10560 | 36914 ft | 445 kts | 105° |
| 2026-05-05 21:19 | 51.01098 | 3.20095 | 36910 ft | 445 kts | 105° |
| 2026-05-05 21:20 | 50.99616 | 3.29626 | 36901 ft | 445 kts | 106° |
| 2026-05-05 21:20 | 50.98126 | 3.39154 | 36903 ft | 444 kts | 106° |
| 2026-05-05 21:21 | 50.96630 | 3.48660 | 36897 ft | 444 kts | 106° |
| 2026-05-05 21:21 | 50.95129 | 3.58172 | 36897 ft | 444 kts | 106° |
| 2026-05-05 21:22 | 50.93621 | 3.67683 | 36892 ft | 444 kts | 106° |
| 2026-05-05 21:22 | 50.92091 | 3.77168 | 36893 ft | 444 kts | 106° |
| 2026-05-05 21:23 | 50.90560 | 3.86651 | 36888 ft | 444 kts | 106° |
| 2026-05-05 21:23 | 50.89032 | 3.96137 | 36887 ft | 444 kts | 106° |
| 2026-05-05 21:24 | 50.87746 | 4.04001 | 36891 ft | 444 kts | 107° |
| 2026-05-05 21:24 | 50.86310 | 4.12011 | 36888 ft | 443 kts | 109° |
| 2026-05-05 21:25 | 50.84511 | 4.21369 | 36890 ft | 443 kts | 109° |
| 2026-05-05 21:25 | 50.83017 | 4.29137 | 36892 ft | 443 kts | 109° |
| 2026-05-05 21:26 | 50.81247 | 4.38491 | 36892 ft | 443 kts | 109° |
| 2026-05-05 21:26 | 50.79479 | 4.47819 | 36896 ft | 443 kts | 109° |
| 2026-05-05 21:27 | 50.77702 | 4.57142 | 36895 ft | 443 kts | 109° |
| 2026-05-05 21:27 | 50.75915 | 4.66442 | 36892 ft | 442 kts | 109° |
| 2026-05-05 21:28 | 50.74127 | 4.75742 | 36890 ft | 442 kts | 109° |
| 2026-05-05 21:28 | 50.72332 | 4.85019 | 36886 ft | 442 kts | 109° |
| 2026-05-05 21:29 | 50.70531 | 4.94291 | 36875 ft | 441 kts | 109° |
| 2026-05-05 21:29 | 50.68726 | 5.03537 | 36877 ft | 441 kts | 109° |
| 2026-05-05 21:30 | 50.66908 | 5.12795 | 36874 ft | 441 kts | 109° |
| 2026-05-05 21:30 | 50.65085 | 5.22014 | 36875 ft | 440 kts | 109° |
| 2026-05-05 21:31 | 50.63259 | 5.31224 | 36873 ft | 440 kts | 109° |
| 2026-05-05 21:31 | 50.61433 | 5.40423 | 36871 ft | 440 kts | 110° |
| 2026-05-05 21:32 | 50.59590 | 5.49599 | 36869 ft | 439 kts | 110° |
| 2026-05-05 21:32 | 50.57748 | 5.58769 | 36868 ft | 439 kts | 110° |
| 2026-05-05 21:33 | 50.55897 | 5.67926 | 36864 ft | 439 kts | 110° |
| 2026-05-05 21:33 | 50.54037 | 5.77082 | 36862 ft | 439 kts | 110° |
| 2026-05-05 21:34 | 50.52173 | 5.86233 | 36851 ft | 439 kts | 110° |
| 2026-05-05 21:34 | 50.50300 | 5.95389 | 36842 ft | 439 kts | 110° |
| 2026-05-05 21:35 | 50.48420 | 6.04515 | 36833 ft | 439 kts | 110° |
| 2026-05-05 21:35 | 50.46532 | 6.13647 | 36824 ft | 440 kts | 110° |
| 2026-05-05 21:36 | 50.44650 | 6.22712 | 36819 ft | 440 kts | 110° |
| 2026-05-05 21:36 | 50.42742 | 6.31839 | 36816 ft | 440 kts | 110° |
| 2026-05-05 21:37 | 50.41344 | 6.41188 | 36808 ft | 443 kts | 98° |
| 2026-05-05 21:37 | 50.40631 | 6.50787 | 36806 ft | 443 kts | 99° |
| 2026-05-05 21:38 | 50.39899 | 6.60388 | 36808 ft | 443 kts | 99° |
| 2026-05-05 21:38 | 50.39147 | 6.69979 | 36806 ft | 443 kts | 99° |
| 2026-05-05 21:39 | 50.38386 | 6.79567 | 36810 ft | 443 kts | 99° |
| 2026-05-05 21:39 | 50.37620 | 6.89217 | 36813 ft | 443 kts | 99° |
| 2026-05-05 21:40 | 50.36855 | 6.98810 | 36815 ft | 444 kts | 99° |
| 2026-05-05 21:40 | 50.36079 | 7.08393 | 36811 ft | 444 kts | 99° |
| 2026-05-05 21:41 | 50.35286 | 7.17988 | 36809 ft | 444 kts | 99° |
| 2026-05-05 21:41 | 50.34493 | 7.27569 | 36812 ft | 444 kts | 99° |
| 2026-05-05 21:42 | 50.33697 | 7.37153 | 36803 ft | 444 kts | 99° |
| 2026-05-05 21:42 | 50.32883 | 7.46738 | 36815 ft | 444 kts | 100° |
| 2026-05-05 21:43 | 50.32063 | 7.56323 | 36815 ft | 444 kts | 100° |
| 2026-05-05 21:43 | 50.31244 | 7.65912 | 36821 ft | 445 kts | 100° |
| 2026-05-05 21:44 | 50.30415 | 7.75502 | 36820 ft | 445 kts | 100° |
| 2026-05-05 21:44 | 50.29567 | 7.85097 | 36816 ft | 445 kts | 100° |
| 2026-05-05 21:45 | 50.28640 | 7.94668 | 36816 ft | 445 kts | 103° |
| 2026-05-05 21:45 | 50.27370 | 8.04117 | 36817 ft | 444 kts | 105° |
| 2026-05-05 21:46 | 50.25964 | 8.13529 | 36815 ft | 444 kts | 105° |
| 2026-05-05 21:46 | 50.24600 | 8.22932 | 36815 ft | 444 kts | 105° |
| 2026-05-05 21:47 | 50.23278 | 8.32377 | 36812 ft | 445 kts | 105° |
| 2026-05-05 21:47 | 50.21967 | 8.41807 | 36816 ft | 444 kts | 105° |
| 2026-05-05 21:48 | 50.20632 | 8.51227 | 36813 ft | 444 kts | 105° |
| 2026-05-05 21:48 | 50.19272 | 8.60652 | 36815 ft | 444 kts | 105° |
| 2026-05-05 21:49 | 50.17911 | 8.70061 | 36815 ft | 444 kts | 105° |
| 2026-05-05 21:49 | 50.16555 | 8.79469 | 36815 ft | 444 kts | 105° |
| 2026-05-05 21:50 | 50.15192 | 8.88865 | 36816 ft | 444 kts | 105° |
| 2026-05-05 21:50 | 50.13819 | 8.98260 | 36826 ft | 444 kts | 106° |
| 2026-05-05 21:51 | 50.12429 | 9.07666 | 36831 ft | 444 kts | 106° |
| 2026-05-05 21:51 | 50.11048 | 9.16922 | 36832 ft | 444 kts | 106° |
| 2026-05-05 21:52 | 50.08945 | 9.30980 | 36832 ft | 444 kts | 106° |
| 2026-05-05 21:53 | 50.07537 | 9.40360 | 36832 ft | 445 kts | 106° |
| 2026-05-05 21:53 | 50.06118 | 9.49736 | 36833 ft | 445 kts | 106° |
| 2026-05-05 21:54 | 50.04691 | 9.59103 | 36831 ft | 444 kts | 107° |
| 2026-05-05 21:54 | 50.03253 | 9.68459 | 36834 ft | 445 kts | 107° |
| 2026-05-05 21:55 | 50.01803 | 9.77826 | 36831 ft | 445 kts | 107° |
| 2026-05-05 21:55 | 50.00354 | 9.87175 | 36831 ft | 445 kts | 107° |
| 2026-05-05 21:56 | 49.98895 | 9.96531 | 36829 ft | 445 kts | 107° |
| 2026-05-05 21:56 | 49.97428 | 10.05872 | 36827 ft | 445 kts | 107° |
| 2026-05-05 21:57 | 49.95954 | 10.15212 | 36824 ft | 445 kts | 107° |
| 2026-05-05 21:57 | 49.94470 | 10.24546 | 36827 ft | 445 kts | 107° |
| 2026-05-05 21:58 | 49.93229 | 10.32299 | 36825 ft | 445 kts | 107° |
| 2026-05-05 21:58 | 49.91517 | 10.41504 | 36819 ft | 441 kts | 115° |
| 2026-05-05 21:59 | 49.88862 | 10.51779 | 36819 ft | 442 kts | 115° |
| 2026-05-05 21:59 | 49.86942 | 10.59185 | 36817 ft | 442 kts | 115° |
| 2026-05-05 22:00 | 49.84654 | 10.68019 | 36815 ft | 442 kts | 115° |
| 2026-05-05 22:00 | 49.82346 | 10.76857 | 36815 ft | 442 kts | 115° |
| 2026-05-05 22:01 | 49.80029 | 10.85682 | 36829 ft | 443 kts | 116° |
| 2026-05-05 22:01 | 49.77708 | 10.94511 | 36835 ft | 443 kts | 116° |
| 2026-05-05 22:02 | 49.75384 | 11.03332 | 36838 ft | 443 kts | 116° |
| 2026-05-05 22:02 | 49.73048 | 11.12162 | 36841 ft | 443 kts | 116° |
| 2026-05-05 22:03 | 49.70708 | 11.20978 | 36842 ft | 444 kts | 116° |
| 2026-05-05 22:03 | 49.68356 | 11.29803 | 36837 ft | 444 kts | 116° |
| 2026-05-05 22:04 | 49.65993 | 11.38597 | 36833 ft | 444 kts | 116° |
| 2026-05-05 22:04 | 49.63820 | 11.47530 | 36834 ft | 446 kts | 112° |
| 2026-05-05 22:05 | 49.62004 | 11.56650 | 36819 ft | 447 kts | 110° |
| 2026-05-05 22:05 | 49.60198 | 11.65892 | 36822 ft | 447 kts | 111° |
| 2026-05-05 22:06 | 49.58333 | 11.74978 | 36811 ft | 447 kts | 112° |
| 2026-05-05 22:06 | 49.56400 | 11.84074 | 36803 ft | 447 kts | 112° |
| 2026-05-05 22:07 | 49.54460 | 11.93168 | 36809 ft | 447 kts | 112° |
| 2026-05-05 22:07 | 49.52526 | 12.02261 | 36803 ft | 447 kts | 112° |
| 2026-05-05 22:08 | 49.50591 | 12.11349 | 36811 ft | 447 kts | 112° |
| 2026-05-05 22:08 | 49.48644 | 12.20455 | 36818 ft | 447 kts | 112° |
| 2026-05-05 22:09 | 49.46691 | 12.29536 | 36821 ft | 447 kts | 112° |
| 2026-05-05 22:09 | 49.44728 | 12.38626 | 36826 ft | 447 kts | 112° |
| 2026-05-05 22:10 | 49.42754 | 12.47690 | 36828 ft | 448 kts | 112° |
| 2026-05-05 22:10 | 49.40775 | 12.56765 | 36828 ft | 448 kts | 112° |
| 2026-05-05 22:11 | 49.38791 | 12.65833 | 36826 ft | 448 kts | 113° |
| 2026-05-05 22:11 | 49.36800 | 12.74892 | 36817 ft | 448 kts | 113° |
| 2026-05-05 22:12 | 49.34706 | 12.83924 | 36820 ft | 448 kts | 115° |
| 2026-05-05 22:12 | 49.32486 | 12.92847 | 36824 ft | 448 kts | 115° |
| 2026-05-05 22:13 | 49.30264 | 13.01704 | 36832 ft | 448 kts | 115° |
| 2026-05-05 22:13 | 49.28060 | 13.10647 | 36828 ft | 449 kts | 115° |
| 2026-05-05 22:14 | 49.25847 | 13.19596 | 36826 ft | 449 kts | 115° |
| 2026-05-05 22:14 | 49.23617 | 13.28532 | 36831 ft | 449 kts | 115° |
| 2026-05-05 22:15 | 49.21283 | 13.37391 | 36831 ft | 448 kts | 116° |
| 2026-05-05 22:15 | 49.18873 | 13.46205 | 36830 ft | 449 kts | 116° |
| 2026-05-05 22:16 | 49.16472 | 13.55001 | 36826 ft | 449 kts | 116° |
| 2026-05-05 22:16 | 49.14074 | 13.63817 | 36823 ft | 449 kts | 116° |
| 2026-05-05 22:17 | 49.11675 | 13.72638 | 36820 ft | 449 kts | 116° |
| 2026-05-05 22:17 | 49.09284 | 13.81401 | 36824 ft | 450 kts | 116° |
| 2026-05-05 22:18 | 49.06874 | 13.90210 | 36820 ft | 450 kts | 116° |
| 2026-05-05 22:18 | 49.04445 | 13.99013 | 36816 ft | 450 kts | 116° |
| 2026-05-05 22:19 | 49.02016 | 14.07811 | 36815 ft | 451 kts | 116° |
| 2026-05-05 22:19 | 48.99574 | 14.16615 | 36805 ft | 451 kts | 116° |
| 2026-05-05 22:20 | 48.97122 | 14.25408 | 36801 ft | 451 kts | 116° |
| 2026-05-05 22:20 | 48.94656 | 14.34198 | 36793 ft | 452 kts | 116° |
| 2026-05-05 22:21 | 48.92228 | 14.43025 | 36790 ft | 453 kts | 115° |
| 2026-05-05 22:21 | 48.89828 | 14.51894 | 36793 ft | 453 kts | 115° |
| 2026-05-05 22:22 | 48.87406 | 14.60755 | 36792 ft | 454 kts | 116° |
| 2026-05-05 22:22 | 48.84964 | 14.69600 | 36793 ft | 454 kts | 116° |
| 2026-05-05 22:23 | 48.82511 | 14.78424 | 36794 ft | 454 kts | 116° |
| 2026-05-05 22:23 | 48.80050 | 14.87262 | 36790 ft | 454 kts | 116° |
| 2026-05-05 22:24 | 48.77583 | 14.96102 | 36786 ft | 455 kts | 115° |
| 2026-05-05 22:24 | 48.75118 | 15.04939 | 36785 ft | 455 kts | 115° |
| 2026-05-05 22:25 | 48.72638 | 15.13766 | 36784 ft | 455 kts | 116° |
| 2026-05-05 22:25 | 48.70153 | 15.22577 | 36777 ft | 455 kts | 115° |
| 2026-05-05 22:26 | 48.67657 | 15.31389 | 36778 ft | 455 kts | 116° |
| 2026-05-05 22:26 | 48.65166 | 15.40127 | 36778 ft | 455 kts | 116° |
| 2026-05-05 22:27 | 48.62654 | 15.48921 | 36771 ft | 455 kts | 115° |
| 2026-05-05 22:27 | 48.60141 | 15.57708 | 36770 ft | 455 kts | 115° |
| 2026-05-05 22:28 | 48.57620 | 15.66493 | 36775 ft | 455 kts | 116° |
| 2026-05-05 22:28 | 48.55086 | 15.75271 | 36775 ft | 455 kts | 115° |
| 2026-05-05 22:29 | 48.52552 | 15.84029 | 36772 ft | 455 kts | 116° |
| 2026-05-05 22:29 | 48.50012 | 15.92790 | 36769 ft | 456 kts | 116° |
| 2026-05-05 22:30 | 48.47466 | 16.01541 | 36772 ft | 456 kts | 116° |
| 2026-05-05 22:30 | 48.44905 | 16.10276 | 36769 ft | 456 kts | 116° |
| 2026-05-05 22:31 | 48.42336 | 16.19013 | 36769 ft | 456 kts | 116° |
| 2026-05-05 22:31 | 48.39767 | 16.27738 | 36769 ft | 456 kts | 116° |
| 2026-05-05 22:32 | 48.37188 | 16.36456 | 36777 ft | 456 kts | 116° |
| 2026-05-05 22:32 | 48.34597 | 16.45171 | 36780 ft | 456 kts | 116° |
| 2026-05-05 22:33 | 48.31999 | 16.53877 | 36787 ft | 456 kts | 116° |
| 2026-05-05 22:33 | 48.29402 | 16.62582 | 36790 ft | 456 kts | 116° |
| 2026-05-05 22:34 | 48.26795 | 16.71276 | 36792 ft | 456 kts | 116° |
| 2026-05-05 22:34 | 48.24603 | 16.78548 | 36792 ft | 457 kts | 116° |
| 2026-05-05 22:35 | 48.21987 | 16.87230 | 36794 ft | 457 kts | 116° |
| 2026-05-05 22:35 | 48.19363 | 16.95917 | 36818 ft | 457 kts | 114° |
| 2026-05-05 22:36 | 48.17334 | 17.04965 | 36825 ft | 458 kts | 109° |
| 2026-05-05 22:36 | 48.15387 | 17.14048 | 36517 ft | 458 kts | 109° |
| 2026-05-05 22:36 | 48.14408 | 17.18587 | 36153 ft | 458 kts | 109° |
| 2026-05-05 22:37 | 48.13425 | 17.23129 | 35764 ft | 458 kts | 109° |
| 2026-05-05 22:37 | 48.12441 | 17.27664 | 35386 ft | 459 kts | 109° |
| 2026-05-05 22:37 | 48.11451 | 17.32211 | 35011 ft | 459 kts | 109° |
| 2026-05-05 22:37 | 48.10472 | 17.36710 | 34644 ft | 460 kts | 109° |
| 2026-05-05 22:38 | 48.09481 | 17.41262 | 34276 ft | 460 kts | 109° |
| 2026-05-05 22:38 | 48.08488 | 17.45809 | 33914 ft | 460 kts | 109° |
| 2026-05-05 22:38 | 48.07492 | 17.50362 | 33512 ft | 461 kts | 109° |
| 2026-05-05 22:38 | 48.06496 | 17.54915 | 33099 ft | 461 kts | 109° |
| 2026-05-05 22:39 | 48.05500 | 17.59466 | 32704 ft | 461 kts | 109° |
| 2026-05-05 22:39 | 48.04502 | 17.64021 | 32221 ft | 462 kts | 109° |
| 2026-05-05 22:39 | 48.03496 | 17.68585 | 31571 ft | 460 kts | 109° |
| 2026-05-05 22:39 | 48.02496 | 17.73106 | 30940 ft | 458 kts | 109° |
| 2026-05-05 22:40 | 48.01495 | 17.77612 | 30326 ft | 455 kts | 109° |
| 2026-05-05 22:40 | 48.00501 | 17.82081 | 29694 ft | 453 kts | 109° |
| 2026-05-05 22:40 | 47.99511 | 17.86532 | 28990 ft | 450 kts | 109° |
| 2026-05-05 22:40 | 47.98529 | 17.90945 | 28318 ft | 446 kts | 109° |
| 2026-05-05 22:41 | 47.97551 | 17.95315 | 27732 ft | 441 kts | 109° |
| 2026-05-05 22:41 | 47.96583 | 17.99632 | 27159 ft | 437 kts | 109° |
| 2026-05-05 22:41 | 47.95608 | 18.03896 | 26582 ft | 432 kts | 111° |
| 2026-05-05 22:41 | 47.94190 | 18.07803 | 26032 ft | 425 kts | 127° |
| 2026-05-05 22:42 | 47.92390 | 18.11267 | 25485 ft | 421 kts | 129° |
| 2026-05-05 22:42 | 47.90593 | 18.14669 | 24966 ft | 417 kts | 129° |
| 2026-05-05 22:42 | 47.88796 | 18.18051 | 24440 ft | 413 kts | 129° |
| 2026-05-05 22:42 | 47.87011 | 18.21395 | 23926 ft | 410 kts | 129° |
| 2026-05-05 22:43 | 47.85244 | 18.24695 | 23414 ft | 407 kts | 129° |
| 2026-05-05 22:43 | 47.83482 | 18.27980 | 22813 ft | 404 kts | 130° |
| 2026-05-05 22:43 | 47.81730 | 18.31252 | 22227 ft | 402 kts | 130° |
| 2026-05-05 22:43 | 47.79993 | 18.34500 | 21642 ft | 400 kts | 130° |
| 2026-05-05 22:44 | 47.78267 | 18.37730 | 21077 ft | 397 kts | 130° |
| 2026-05-05 22:44 | 47.76552 | 18.40941 | 20519 ft | 395 kts | 130° |
| 2026-05-05 22:44 | 47.74848 | 18.44121 | 19972 ft | 392 kts | 130° |
| 2026-05-05 22:44 | 47.73157 | 18.47270 | 19435 ft | 389 kts | 130° |
| 2026-05-05 22:45 | 47.71473 | 18.50400 | 18905 ft | 385 kts | 130° |
| 2026-05-05 22:45 | 47.69811 | 18.53488 | 18390 ft | 381 kts | 130° |
| 2026-05-05 22:45 | 47.68162 | 18.56544 | 17829 ft | 377 kts | 130° |
| 2026-05-05 22:45 | 47.66531 | 18.59572 | 17246 ft | 373 kts | 130° |
| 2026-05-05 22:46 | 47.65451 | 18.61564 | 16855 ft | 371 kts | 131° |
| 2026-05-05 22:46 | 47.63841 | 18.64538 | 16316 ft | 366 kts | 131° |
| 2026-05-05 22:46 | 47.62262 | 18.67458 | 15809 ft | 361 kts | 131° |
| 2026-05-05 22:46 | 47.60701 | 18.70344 | 15310 ft | 356 kts | 131° |
| 2026-05-05 22:47 | 47.59164 | 18.73182 | 14822 ft | 351 kts | 131° |
| 2026-05-05 22:47 | 47.57644 | 18.75985 | 14341 ft | 347 kts | 131° |
| 2026-05-05 22:47 | 47.56152 | 18.78729 | 13868 ft | 344 kts | 131° |
| 2026-05-05 22:47 | 47.54662 | 18.81470 | 13366 ft | 340 kts | 131° |
| 2026-05-05 22:48 | 47.53187 | 18.84176 | 12842 ft | 337 kts | 131° |
| 2026-05-05 22:48 | 47.51722 | 18.86855 | 12330 ft | 334 kts | 131° |
| 2026-05-05 22:48 | 47.50334 | 18.89389 | 11868 ft | 330 kts | 131° |
| 2026-05-05 22:48 | 47.48895 | 18.92021 | 11423 ft | 326 kts | 131° |
| 2026-05-05 22:49 | 47.47482 | 18.94612 | 10990 ft | 322 kts | 131° |
| 2026-05-05 22:49 | 47.46093 | 18.97158 | 10756 ft | 312 kts | 131° |
| 2026-05-05 22:49 | 47.44832 | 18.99467 | 10636 ft | 301 kts | 131° |
| 2026-05-05 22:49 | 47.43590 | 19.01737 | 10469 ft | 292 kts | 132° |
| 2026-05-05 22:50 | 47.42319 | 19.04051 | 10165 ft | 289 kts | 132° |
| 2026-05-05 22:50 | 47.41060 | 19.06337 | 9824 ft | 287 kts | 132° |
| 2026-05-05 22:50 | 47.39801 | 19.08621 | 9444 ft | 286 kts | 132° |
| 2026-05-05 22:50 | 47.38544 | 19.10897 | 9015 ft | 286 kts | 132° |
| 2026-05-05 22:51 | 47.37282 | 19.13184 | 8555 ft | 288 kts | 132° |
| 2026-05-05 22:51 | 47.36032 | 19.15454 | 8107 ft | 289 kts | 131° |
| 2026-05-05 22:51 | 47.34765 | 19.17758 | 7653 ft | 290 kts | 131° |
| 2026-05-05 22:51 | 47.33492 | 19.20070 | 7214 ft | 290 kts | 131° |
| 2026-05-05 22:52 | 47.32216 | 19.22382 | 6778 ft | 291 kts | 131° |
| 2026-05-05 22:52 | 47.30944 | 19.24692 | 6453 ft | 287 kts | 131° |
| 2026-05-05 22:52 | 47.29710 | 19.26932 | 6325 ft | 276 kts | 131° |
| 2026-05-05 22:52 | 47.28520 | 19.29087 | 6200 ft | 266 kts | 131° |
| 2026-05-05 22:53 | 47.27369 | 19.31164 | 6078 ft | 257 kts | 131° |
| 2026-05-05 22:53 | 47.26247 | 19.33185 | 5847 ft | 252 kts | 132° |
| 2026-05-05 22:53 | 47.25141 | 19.35176 | 5565 ft | 251 kts | 132° |
| 2026-05-05 22:53 | 47.24079 | 19.37203 | 5256 ft | 251 kts | 123° |
| 2026-05-05 22:54 | 47.23601 | 19.39667 | 4960 ft | 255 kts | 92° |
| 2026-05-05 22:54 | 47.24013 | 19.42190 | 4652 ft | 258 kts | 62° |
| 2026-05-05 22:54 | 47.25179 | 19.44187 | 4306 ft | 259 kts | 43° |
| 2026-05-05 22:54 | 47.26494 | 19.45958 | 4134 ft | 252 kts | 43° |
| 2026-05-05 22:55 | 47.27767 | 19.47659 | 3960 ft | 244 kts | 41° |
| 2026-05-05 22:55 | 47.29257 | 19.48701 | 3768 ft | 234 kts | 2° |
| 2026-05-05 22:55 | 47.30748 | 19.48143 | 3599 ft | 217 kts | 319° |
| 2026-05-05 22:55 | 47.31707 | 19.46523 | 3361 ft | 208 kts | 302° |
| 2026-05-05 22:56 | 47.32644 | 19.44910 | 3108 ft | 206 kts | 307° |
| 2026-05-05 22:56 | 47.33606 | 19.43360 | 2835 ft | 204 kts | 307° |
| 2026-05-05 22:56 | 47.34563 | 19.41826 | 2571 ft | 202 kts | 307° |
| 2026-05-05 22:56 | 47.35508 | 19.40311 | 2333 ft | 197 kts | 307° |
| 2026-05-05 22:57 | 47.36359 | 19.38944 | 2063 ft | 189 kts | 307° |
| 2026-05-05 22:57 | 47.37220 | 19.37562 | 1822 ft | 178 kts | 307° |
| 2026-05-05 22:57 | 47.38025 | 19.36271 | 1605 ft | 161 kts | 306° |
| 2026-05-05 22:57 | 47.38740 | 19.35121 | 1393 ft | 145 kts | 306° |
| 2026-05-05 22:58 | 47.39401 | 19.34058 | 1229 ft | 138 kts | 307° |
| 2026-05-05 22:58 | 47.40035 | 19.33024 | 1077 ft | 135 kts | 309° |
| 2026-05-05 22:58 | 47.40660 | 19.32016 | 943 ft | 132 kts | 308° |
| 2026-05-05 22:58 | 47.41280 | 19.31025 | 790 ft | 131 kts | 309° |
| 2026-05-05 22:59 | 47.41885 | 19.30030 | 618 ft | 130 kts | 309° |
| 2026-05-05 22:59 | 47.42500 | 19.29051 | 458 ft | 129 kts | 310° |
| 2026-05-05 22:59 | 47.43027 | 19.28200 | 459 ft | 99 kts | 312° |
| 2026-05-05 22:59 | 47.43414 | 19.27573 | 467 ft | 68 kts | 313° |
| 2026-05-05 23:00 | 47.43745 | 19.26916 | 471 ft | 24 kts | 283° |
| 2026-05-05 23:00 | 47.43785 | 19.26636 | 460 ft | 26 kts | 283° |
| 2026-05-05 23:00 | 47.43825 | 19.26381 | 458 ft | 24 kts | 290° |
| 2026-05-05 23:01 | 47.43909 | 19.26218 | 458 ft | 17 kts | 305° |
| 2026-05-05 23:01 | 47.43855 | 19.26074 | 458 ft | 19 kts | 222° |
| 2026-05-05 23:01 | 47.43748 | 19.25930 | 457 ft | 22 kts | 222° |
| 2026-05-05 23:01 | 47.43632 | 19.25773 | 457 ft | 25 kts | 222° |
| 2026-05-05 23:02 | 47.43503 | 19.25599 | 457 ft | 27 kts | 223° |
| 2026-05-05 23:02 | 47.43392 | 19.25452 | 457 ft | 17 kts | 221° |
| 2026-05-05 23:02 | 47.43314 | 19.25478 | 457 ft | 15 kts | 131° |
| 2026-05-05 23:02 | 47.43236 | 19.25604 | 457 ft | 17 kts | 133° |
| 2026-05-05 23:03 | 47.43162 | 19.25722 | 457 ft | 15 kts | 133° |
| 2026-05-05 23:03 | 47.43098 | 19.25829 | 457 ft | 12 kts | 131° |
| 2026-05-05 23:03 | 47.43047 | 19.25908 | 457 ft | 8 kts | 135° |
| 2026-05-05 23:03 | 47.43059 | 19.25966 | 457 ft | 7 kts | 41° |
| 2026-05-05 23:04 | 47.43085 | 19.26001 | 457 ft | 3 kts | 41° |
| 2026-05-05 23:04 | 47.43090 | 19.26007 | 457 ft | 0 kts | 41° |